Time;durP1;ratioP1;P1;durP2;ratioP2;P2;SDS_P1;SDS_P2;PMS_P1;PMS_P2;Temp;Humidity;BMP_temperature;BMP_pressure;BME280_temperature;BME280_humidity;BME280_pressure;Samples;Min_cycle;Max_cycle;Signal;HPM_P1;HPM_P2
2022/01/11 00:00:57;;;;;;;24.73;13.15;;;0.30;99.90;;;;;;5095511;27;20393;-84
2022/01/11 00:03:24;;;;;;;26.45;13.77;;;0.30;99.90;;;;;;5095237;27;20399;-84
2022/01/11 00:06:00;;;;;;;24.15;14.60;;;0.20;99.90;;;;;;5111905;27;20122;-84
2022/01/11 00:08:31;;;;;;;34.03;13.70;;;0.20;99.90;;;;;;5112554;27;20043;-84
2022/01/11 00:11:04;;;;;;;28.30;14.38;;;0.20;99.90;;;;;;5094163;27;20043;-85
2022/01/11 00:13:31;;;;;;;33.45;14.68;;;0.10;99.90;;;;;;5095488;27;20130;-85
2022/01/11 00:15:57;;;;;;;29.20;14.45;;;0.10;99.90;;;;;;5111898;27;20372;-84
2022/01/11 00:18:23;;;;;;;32.53;14.05;;;0.80;99.90;;;;;;5078783;27;20092;-85
2022/01/11 00:20:49;;;;;;;25.95;13.45;;;0.10;99.90;;;;;;5115626;27;20043;-85
2022/01/11 00:25:47;;;;;;;24.38;13.02;;;0.00;99.90;;;;;;5117840;27;20047;-85
2022/01/11 00:28:15;;;;;;;21.55;12.77;;;0.00;99.90;;;;;;5115007;27;20035;-85
2022/01/11 00:30:43;;;;;;;26.50;13.48;;;-0.10;99.90;;;;;;5082934;27;20054;-84
2022/01/11 00:33:14;;;;;;;26.65;12.85;;;-0.10;99.90;;;;;;5095426;27;20126;-85
2022/01/11 00:35:56;;;;;;;25.65;14.05;;;-0.10;99.90;;;;;;5113343;27;20463;-85
2022/01/11 00:38:24;;;;;;;25.98;13.48;;;-0.20;99.90;;;;;;5112420;27;20134;-85
2022/01/11 00:40:52;;;;;;;25.60;13.00;;;-0.20;99.90;;;;;;5111340;27;20451;-84
2022/01/11 00:43:21;;;;;;;25.80;14.10;;;-0.20;99.90;;;;;;5112311;27;20490;-85
2022/01/11 00:45:48;;;;;;;23.92;13.27;;;-0.20;99.90;;;;;;5111551;27;20078;-85
2022/01/11 00:48:14;;;;;;;29.48;14.80;;;-0.20;99.90;;;;;;5111895;27;20236;-85
2022/01/11 00:50:39;;;;;;;31.92;15.10;;;-0.20;99.90;;;;;;5111281;27;20224;-85
2022/01/11 00:53:07;;;;;;;25.27;13.23;;;-0.20;99.90;;;;;;5110611;27;20307;-86
2022/01/11 00:55:34;;;;;;;22.65;14.35;;;-0.20;99.90;;;;;;5111114;27;20506;-85
2022/01/11 00:58:02;;;;;;;23.42;13.95;;;-0.20;99.90;;;;;;5093108;27;20051;-85
2022/01/11 01:00:29;;;;;;;25.27;13.60;;;-0.20;99.90;;;;;;5111117;27;20088;-85
2022/01/11 01:02:54;;;;;;;29.13;14.60;;;-0.20;99.90;;;;;;5110174;27;20565;-86
2022/01/11 01:05:21;;;;;;;25.48;13.10;;;-0.30;99.90;;;;;;5093936;27;20130;-86
2022/01/11 01:07:49;;;;;;;26.10;13.45;;;-0.30;99.90;;;;;;5077225;27;20039;-86
2022/01/11 01:10:25;;;;;;;27.25;13.82;;;-0.30;99.90;;;;;;5110193;27;20560;-85
2022/01/11 01:12:56;;;;;;;22.90;13.30;;;-0.30;99.90;;;;;;5110718;27;20050;-85
2022/01/11 01:15:23;;;;;;;23.92;13.30;;;-0.30;99.90;;;;;;5109546;27;20709;-86
2022/01/11 01:17:50;;;;;;;29.20;14.70;;;0.80;99.90;;;;;;5076919;27;20039;-86
2022/01/11 01:20:16;;;;;;;26.73;13.52;;;-0.40;99.90;;;;;;5110039;27;20500;-86
2022/01/11 01:22:42;;;;;;;24.13;13.45;;;-0.40;99.90;;;;;;5110377;27;20050;-85
2022/01/11 01:25:09;;;;;;;23.58;13.35;;;-0.40;99.90;;;;;;5093797;27;20039;-86
2022/01/11 01:27:35;;;;;;;22.27;12.73;;;-0.40;99.90;;;;;;5109744;27;20055;-85
2022/01/11 01:30:02;;;;;;;23.73;13.93;;;-0.40;99.90;;;;;;5110293;27;20494;-85
2022/01/11 01:32:28;;;;;;;26.88;13.88;;;-0.40;99.90;;;;;;5109130;27;20514;-85
2022/01/11 01:34:57;;;;;;;29.30;13.82;;;-0.40;99.90;;;;;;5110064;27;20043;-86
2022/01/11 01:37:23;;;;;;;21.42;11.90;;;-0.30;99.90;;;;;;5092548;27;20055;-86
2022/01/11 01:39:48;;;;;;;22.67;12.95;;;-0.30;99.90;;;;;;5076406;27;20471;-86
2022/01/11 01:42:14;;;;;;;25.33;14.57;;;1.20;99.90;;;;;;5076280;27;20047;-85
2022/01/11 01:44:43;;;;;;;23.08;12.85;;;-0.30;99.90;;;;;;5109757;27;20127;-85
2022/01/11 01:47:11;;;;;;;24.25;13.57;;;-0.30;99.90;;;;;;5110307;27;20404;-85
2022/01/11 01:49:39;;;;;;;24.95;13.45;;;-0.30;99.90;;;;;;5109714;27;20066;-85
2022/01/11 01:52:05;;;;;;;27.08;12.80;;;-0.30;99.90;;;;;;5076426;27;20082;-85
2022/01/11 01:54:31;;;;;;;26.63;13.05;;;-0.30;99.90;;;;;;5075575;27;20125;-85
2022/01/11 01:56:58;;;;;;;24.58;12.77;;;-0.30;99.90;;;;;;5075986;27;20035;-85
2022/01/11 01:59:24;;;;;;;28.20;13.38;;;-0.30;99.90;;;;;;5092830;27;20077;-85
2022/01/11 02:01:50;;;;;;;29.80;14.52;;;-0.30;99.90;;;;;;5092517;28;20445;-85
2022/01/11 02:04:18;;;;;;;31.83;13.98;;;-0.30;99.90;;;;;;5109837;27;20126;-85
2022/01/11 02:06:47;;;;;;;26.38;13.77;;;-0.30;99.90;;;;;;5109359;27;20355;-85
2022/01/11 02:09:17;;;;;;;23.25;13.10;;;-0.30;99.90;;;;;;5093324;28;20491;-85
2022/01/11 02:11:44;;;;;;;23.27;12.45;;;-0.30;99.90;;;;;;5093239;28;20473;-85
2022/01/11 02:14:09;;;;;;;27.10;14.02;;;-0.30;99.90;;;;;;5109333;28;20410;-85
2022/01/11 02:16:35;;;;;;;26.80;13.98;;;-0.30;99.90;;;;;;5109578;28;20039;-85
2022/01/11 02:19:01;;;;;;;28.00;15.00;;;-0.30;99.90;;;;;;5108992;28;20110;-85
2022/01/11 02:21:27;;;;;;;25.13;14.27;;;-0.30;99.90;;;;;;5109852;28;20482;-84
2022/01/11 02:23:53;;;;;;;27.70;13.93;;;-0.30;99.90;;;;;;5108709;28;20047;-84
2022/01/11 02:26:20;;;;;;;29.05;14.52;;;-0.30;99.90;;;;;;5109577;28;20436;-85
2022/01/11 02:28:46;;;;;;;28.38;14.85;;;-0.30;99.90;;;;;;5109014;28;20477;-84
2022/01/11 02:31:12;;;;;;;28.48;14.95;;;-0.30;99.90;;;;;;5109291;28;20126;-85
2022/01/11 02:33:44;;;;;;;36.85;16.83;;;-0.30;99.90;;;;;;5092896;28;20122;-85
2022/01/11 02:36:25;;;;;;;32.72;14.82;;;1.20;99.90;;;;;;5108958;28;20434;-85
2022/01/11 02:38:53;;;;;;;37.38;15.15;;;-0.20;99.90;;;;;;5092354;28;20542;-85
2022/01/11 02:41:19;;;;;;;38.15;16.92;;;-0.20;99.90;;;;;;5108644;28;20036;-85
2022/01/11 02:43:47;;;;;;;40.50;16.13;;;0.00;99.90;;;;;;5092726;28;20046;-85
2022/01/11 02:46:15;;;;;;;38.47;16.13;;;-0.20;99.90;;;;;;5109052;28;20501;-85
2022/01/11 02:48:41;;;;;;;40.90;16.05;;;-0.20;99.90;;;;;;5108833;28;20046;-85
2022/01/11 02:51:08;;;;;;;35.42;15.25;;;-0.20;99.90;;;;;;5076273;27;20043;-85
2022/01/11 02:53:45;;;;;;;44.10;16.13;;;0.00;99.90;;;;;;5112177;27;20122;-85
2022/01/11 02:56:11;;;;;;;36.08;14.90;;;-0.20;99.90;;;;;;5096587;27;20043;-85
2022/01/11 02:58:38;;;;;;;38.38;15.23;;;-0.20;99.90;;;;;;5112976;27;20039;-85
2022/01/11 03:01:05;;;;;;;41.20;16.40;;;-0.20;99.90;;;;;;5113203;27;20031;-85
2022/01/11 03:03:30;;;;;;;40.17;15.48;;;-0.10;99.90;;;;;;5079306;27;20082;-85
2022/01/11 03:05:58;;;;;;;35.13;15.43;;;-0.10;99.90;;;;;;5112525;27;20078;-84
2022/01/11 03:08:27;;;;;;;38.95;14.68;;;-0.10;99.90;;;;;;5112914;27;20039;-84
2022/01/11 03:10:53;;;;;;;37.95;15.50;;;-0.10;99.90;;;;;;5111940;27;20050;-84
2022/01/11 03:13:19;;;;;;;40.83;15.15;;;-0.10;99.90;;;;;;5078933;27;20042;-84
2022/01/11 03:15:47;;;;;;;49.13;16.02;;;-0.10;99.90;;;;;;5078524;27;20043;-85
2022/01/11 03:18:13;;;;;;;64.40;16.35;;;-0.10;99.90;;;;;;5112551;27;20050;-84
2022/01/11 03:20:41;;;;;;;47.13;16.15;;;0.00;99.90;;;;;;5095905;27;20064;-84
2022/01/11 03:23:08;;;;;;;50.92;16.50;;;0.00;99.90;;;;;;5112194;27;20039;-84
2022/01/11 03:25:34;;;;;;;61.38;17.08;;;0.00;99.90;;;;;;5096228;27;20043;-85
2022/01/11 03:28:01;;;;;;;39.88;15.90;;;0.00;99.90;;;;;;5077912;27;20047;-84
2022/01/11 03:30:26;;;;;;;43.63;16.83;;;1.50;99.90;;;;;;5112779;27;20043;-84
2022/01/11 03:32:53;;;;;;;70.10;17.13;;;0.00;99.90;;;;;;5078569;27;20494;-84
2022/01/11 03:35:19;;;;;;;46.72;16.23;;;0.00;99.90;;;;;;5112222;27;20096;-84
2022/01/11 03:37:45;;;;;;;53.60;18.10;;;0.10;99.90;;;;;;5095301;27;20108;-84
2022/01/11 03:40:16;;;;;;;67.50;16.88;;;0.10;99.90;;;;;;5111808;27;20054;-85
2022/01/11 03:42:43;;;;;;;45.53;17.15;;;0.10;99.90;;;;;;5113203;27;20039;-85
2022/01/11 03:45:11;;;;;;;44.15;16.35;;;1.60;99.90;;;;;;5111751;27;20413;-85
2022/01/11 03:47:38;;;;;;;63.05;17.48;;;-0.80;99.90;;;;;;5112543;27;20073;-84
2022/01/11 03:50:05;;;;;;;59.75;17.75;;;0.10;99.90;;;;;;5111663;27;20043;-84
2022/01/11 03:52:31;;;;;;;63.70;18.23;;;0.00;99.90;;;;;;5095197;27;20100;-85
2022/01/11 03:57:24;;;;;;;74.90;18.25;;;0.10;99.90;;;;;;5111684;27;20051;-84
2022/01/11 03:59:50;;;;;;;69.55;18.45;;;0.10;99.90;;;;;;5095504;27;20472;-84
2022/01/11 04:02:17;;;;;;;40.05;17.83;;;0.00;99.90;;;;;;5093601;27;20183;-83
2022/01/11 04:04:43;;;;;;;51.72;17.40;;;0.10;99.90;;;;;;5077526;27;20039;-83
2022/01/11 04:07:09;;;;;;;57.90;17.90;;;0.10;99.90;;;;;;5112421;27;20461;-84
2022/01/11 04:09:35;;;;;;;36.97;14.57;;;0.00;99.90;;;;;;5111593;27;20135;-84
2022/01/11 04:12:01;;;;;;;60.92;18.20;;;0.00;99.90;;;;;;5111694;27;20047;-84
2022/01/11 04:14:27;;;;;;;42.13;16.50;;;0.00;99.90;;;;;;5111061;27;20050;-84
2022/01/11 04:16:53;;;;;;;55.95;16.70;;;0.00;99.90;;;;;;5094834;27;20035;-84
2022/01/11 04:19:20;;;;;;;40.38;16.15;;;0.00;99.90;;;;;;5094304;27;20402;-83
2022/01/11 04:21:46;;;;;;;60.60;17.13;;;0.00;99.90;;;;;;5111889;27;20462;-84
2022/01/11 04:24:13;;;;;;;54.88;17.13;;;0.00;99.90;;;;;;5094560;27;20043;-84
2022/01/11 04:26:39;;;;;;;61.20;18.05;;;0.00;99.90;;;;;;5094513;27;20042;-84
2022/01/11 04:29:05;;;;;;;59.67;17.90;;;0.00;99.90;;;;;;5111498;27;20043;-84
2022/01/11 04:31:31;;;;;;;46.58;17.52;;;0.00;99.90;;;;;;5093418;27;20039;-86
2022/01/11 04:33:57;;;;;;;58.17;17.05;;;1.40;99.90;;;;;;5111513;27;20078;-84
2022/01/11 04:36:22;;;;;;;54.35;17.75;;;0.00;99.90;;;;;;5129069;27;20136;-83
2022/01/11 04:38:48;;;;;;;45.42;16.98;;;0.00;99.90;;;;;;5111246;27;20144;-84
2022/01/11 04:41:14;;;;;;;59.47;18.30;;;0.00;99.90;;;;;;5110582;27;20054;-84
2022/01/11 04:43:40;;;;;;;59.10;17.70;;;0.10;99.90;;;;;;5129390;27;20043;-84
2022/01/11 04:46:06;;;;;;;79.07;18.77;;;0.10;99.90;;;;;;5094078;27;20134;-85
2022/01/11 04:48:32;;;;;;;72.60;20.42;;;0.10;99.90;;;;;;5129120;27;20047;-85
2022/01/11 04:51:04;;;;;;;64.40;17.75;;;0.10;99.90;;;;;;5093986;27;20047;-83
2022/01/11 04:53:30;;;;;;;61.08;18.38;;;0.10;99.90;;;;;;5128759;27;20051;-84
2022/01/11 04:55:56;;;;;;;62.45;19.85;;;0.10;99.90;;;;;;5094008;27;20043;-83
2022/01/11 04:58:22;;;;;;;64.30;18.65;;;0.10;99.90;;;;;;5110267;27;20039;-83
2022/01/11 05:00:48;;;;;;;55.13;19.40;;;0.10;99.90;;;;;;5076707;27;20039;-83
2022/01/11 05:03:15;;;;;;;59.35;20.25;;;0.10;99.90;;;;;;5110880;27;20751;-83
2022/01/11 05:05:41;;;;;;;49.33;17.35;;;0.10;99.90;;;;;;5093368;27;20467;-84
2022/01/11 05:08:06;;;;;;;57.50;18.90;;;0.10;99.90;;;;;;5110732;27;20085;-83
2022/01/11 05:10:32;;;;;;;62.45;19.55;;;0.10;99.90;;;;;;5109678;27;20464;-84
2022/01/11 05:12:59;;;;;;;45.05;19.35;;;0.10;99.90;;;;;;5129185;27;20050;-84
2022/01/11 05:15:25;;;;;;;42.63;18.23;;;0.10;99.90;;;;;;5110067;27;20078;-84
2022/01/11 05:17:52;;;;;;;54.38;19.33;;;0.10;99.90;;;;;;5110983;27;20049;-84
2022/01/11 05:20:19;;;;;;;45.22;18.98;;;0.10;99.90;;;;;;5110091;27;20039;-83
2022/01/11 05:22:45;;;;;;;51.78;19.85;;;0.10;99.90;;;;;;5092508;27;20506;-83
2022/01/11 05:25:13;;;;;;;41.13;18.02;;;1.50;99.90;;;;;;5129491;27;20118;-83
2022/01/11 05:27:40;;;;;;;52.50;19.05;;;0.70;99.90;;;;;;5127811;27;20118;-84
2022/01/11 05:30:06;;;;;;;49.65;17.95;;;0.10;99.90;;;;;;5129118;27;20122;-83
2022/01/11 05:32:32;;;;;;;45.45;19.15;;;0.20;99.90;;;;;;5110296;27;20255;-85
2022/01/11 05:34:58;;;;;;;42.35;17.55;;;0.20;99.90;;;;;;5093089;27;20130;-85
2022/01/11 05:37:23;;;;;;;44.47;18.05;;;0.20;99.90;;;;;;5093533;27;20069;-85
2022/01/11 05:39:53;;;;;;;43.72;18.42;;;0.20;99.90;;;;;;5128220;27;20165;-85
2022/01/11 05:42:19;;;;;;;48.97;19.40;;;0.20;99.90;;;;;;5110304;27;20043;-84
2022/01/11 05:44:44;;;;;;;49.22;18.75;;;0.30;99.90;;;;;;5109601;27;20146;-84
2022/01/11 05:47:10;;;;;;;45.75;18.30;;;0.30;99.90;;;;;;5093271;27;20039;-83
2022/01/11 05:49:36;;;;;;;41.13;17.23;;;0.30;99.90;;;;;;5109363;27;20066;-85
2022/01/11 05:52:01;;;;;;;39.70;16.75;;;0.30;99.90;;;;;;5093028;27;20050;-84
2022/01/11 05:54:27;;;;;;;45.75;17.88;;;0.30;99.90;;;;;;5109647;27;20402;-86
2022/01/11 05:56:53;;;;;;;39.88;17.58;;;0.30;99.90;;;;;;5109472;27;20031;-85
2022/01/11 05:59:18;;;;;;;42.15;16.75;;;0.30;99.90;;;;;;5128725;27;20591;-85
2022/01/11 06:01:44;;;;;;;36.58;17.00;;;0.30;99.90;;;;;;5091736;27;20142;-85
2022/01/11 06:04:10;;;;;;;36.00;17.38;;;0.40;99.90;;;;;;5093210;27;20045;-85
2022/01/11 06:06:35;;;;;;;48.55;19.20;;;1.90;99.90;;;;;;5109772;28;20499;-84
2022/01/11 06:09:03;;;;;;;50.90;17.73;;;0.40;99.90;;;;;;5128371;27;20336;-84
2022/01/11 06:11:29;;;;;;;36.78;17.02;;;0.40;99.90;;;;;;5109627;28;20364;-84
2022/01/11 06:13:55;;;;;;;38.05;16.25;;;0.50;99.90;;;;;;5127662;27;20049;-84
2022/01/11 06:16:21;;;;;;;43.15;17.40;;;0.50;99.90;;;;;;5092644;28;20632;-83
2022/01/11 06:18:48;;;;;;;51.33;17.23;;;0.50;99.90;;;;;;5108538;28;20047;-83
2022/01/11 06:21:14;;;;;;;40.13;17.30;;;0.50;99.90;;;;;;5110010;28;20040;-81
2022/01/11 06:23:40;;;;;;;39.13;15.85;;;1.10;99.90;;;;;;5127714;28;20112;-84
2022/01/11 06:26:06;;;;;;;41.00;17.25;;;0.40;99.90;;;;;;5110350;27;20082;-83
2022/01/11 06:28:31;;;;;;;40.03;16.55;;;0.40;99.90;;;;;;5096556;27;20086;-85
2022/01/11 06:30:57;;;;;;;43.20;17.52;;;1.60;99.90;;;;;;5096084;27;20039;-88
2022/01/11 06:33:23;;;;;;;39.55;16.45;;;0.40;99.90;;;;;;5096842;27;20096;-86
2022/01/11 06:35:49;;;;;;;46.55;17.00;;;0.40;99.90;;;;;;5095468;27;20065;-83
2022/01/11 06:38:15;;;;;;;35.20;17.45;;;1.90;99.90;;;;;;5096609;27;20047;-85
2022/01/11 06:40:41;;;;;;;37.13;17.95;;;0.40;99.90;;;;;;5095876;27;20039;-85
2022/01/11 06:43:07;;;;;;;38.95;18.58;;;0.40;99.90;;;;;;5113981;27;20051;-85
2022/01/11 06:45:34;;;;;;;41.05;17.15;;;0.40;99.90;;;;;;5113556;27;20043;-85
2022/01/11 06:48:00;;;;;;;44.15;17.42;;;0.40;99.90;;;;;;5079076;27;20035;-85
2022/01/11 06:50:27;;;;;;;39.72;16.90;;;0.40;99.90;;;;;;5096896;27;20758;-85
2022/01/11 06:52:53;;;;;;;32.75;15.55;;;0.40;99.90;;;;;;5112267;27;20103;-85
2022/01/11 06:55:19;;;;;;;34.92;15.88;;;0.40;99.90;;;;;;5096647;27;20046;-85
2022/01/11 06:57:46;;;;;;;41.42;17.77;;;1.80;99.90;;;;;;5078702;27;20047;-87
2022/01/11 07:00:13;;;;;;;33.58;15.95;;;0.40;99.90;;;;;;5079551;27;20040;-87
2022/01/11 07:02:38;;;;;;;39.67;16.23;;;0.40;99.90;;;;;;5112622;27;20039;-87
2022/01/11 07:05:05;;;;;;;39.25;16.95;;;0.40;99.90;;;;;;5131336;27;20136;-85
2022/01/11 07:07:31;;;;;;;41.53;16.42;;;0.40;99.90;;;;;;5113559;27;20429;-85
2022/01/11 07:09:56;;;;;;;43.42;16.27;;;0.40;99.90;;;;;;5112052;27;20027;-85
2022/01/11 07:12:22;;;;;;;41.25;15.55;;;0.40;99.90;;;;;;5113039;27;20039;-85
2022/01/11 07:14:54;;;;;;;38.70;16.05;;;0.40;99.90;;;;;;5093372;27;20588;-84
2022/01/11 07:17:21;;;;;;;34.03;15.77;;;0.40;99.90;;;;;;5081596;27;20544;-85
2022/01/11 07:19:49;;;;;;;39.65;14.88;;;2.30;99.90;;;;;;5098945;27;20035;-87
2022/01/11 07:22:15;;;;;;;41.13;15.55;;;0.20;99.90;;;;;;5094667;27;20197;-84
2022/01/11 07:24:41;;;;;;;40.65;15.30;;;0.40;99.90;;;;;;5082815;27;20134;-87
2022/01/11 07:27:06;;;;;;;48.88;16.70;;;0.40;99.90;;;;;;5099328;27;20043;-85
2022/01/11 07:29:32;;;;;;;42.45;15.75;;;0.40;99.90;;;;;;5099261;27;20043;-84
2022/01/11 07:31:58;;;;;;;40.67;15.13;;;0.50;99.90;;;;;;5111874;27;20496;-84
2022/01/11 07:34:26;;;;;;;30.95;15.02;;;0.50;99.90;;;;;;5096316;27;20088;-84
2022/01/11 07:36:52;;;;;;;30.48;14.38;;;0.50;99.90;;;;;;5093625;27;20122;-85
2022/01/11 07:39:18;;;;;;;43.75;15.13;;;0.50;99.90;;;;;;5078154;27;20115;-85
2022/01/11 07:41:47;;;;;;;41.97;15.90;;;0.50;99.90;;;;;;5112112;27;20075;-85
2022/01/11 07:44:13;;;;;;;38.63;14.95;;;0.50;99.90;;;;;;5094910;27;20039;-84
2022/01/11 07:46:40;;;;;;;31.52;15.13;;;0.50;99.90;;;;;;5111167;27;20120;-85
2022/01/11 07:49:06;;;;;;;41.92;15.25;;;2.30;99.90;;;;;;5110143;27;20104;-85
2022/01/11 07:51:32;;;;;;;36.55;15.85;;;0.50;99.90;;;;;;5112074;27;20494;-85
2022/01/11 07:53:58;;;;;;;38.80;14.07;;;0.60;99.90;;;;;;5129802;27;20121;-85
2022/01/11 07:56:23;;;;;;;40.72;17.05;;;0.60;99.90;;;;;;5129821;27;20046;-85
2022/01/11 07:58:49;;;;;;;33.88;14.57;;;1.50;99.90;;;;;;5129692;27;20043;-85
2022/01/11 08:01:16;;;;;;;41.45;15.48;;;0.60;99.90;;;;;;5109528;27;20050;-85
2022/01/11 08:03:42;;;;;;;35.70;14.43;;;0.60;99.90;;;;;;5092567;27;20077;-85
2022/01/11 08:06:08;;;;;;;28.67;14.43;;;2.10;99.90;;;;;;5111028;27;20039;-85
2022/01/11 08:08:34;;;;;;;37.97;15.55;;;0.60;99.90;;;;;;5094938;27;20043;-85
2022/01/11 08:11:00;;;;;;;32.72;14.52;;;0.60;99.90;;;;;;5092057;27;20043;-85
2022/01/11 08:13:26;;;;;;;35.88;15.25;;;0.70;99.90;;;;;;5077868;27;20100;-85
2022/01/11 08:15:52;;;;;;;38.78;16.80;;;1.00;99.90;;;;;;5094399;27;20043;-85
2022/01/11 08:18:18;;;;;;;38.83;14.63;;;0.70;99.90;;;;;;5078151;27;20039;-85
2022/01/11 08:20:44;;;;;;;34.70;14.93;;;0.70;99.90;;;;;;5078059;27;20782;-85
2022/01/11 08:23:13;;;;;;;39.58;14.88;;;1.70;99.90;;;;;;5093626;27;20051;-85
2022/01/11 08:25:39;;;;;;;31.90;13.98;;;0.70;99.90;;;;;;5111925;27;20131;-85
2022/01/11 08:28:05;;;;;;;42.00;15.82;;;0.80;99.90;;;;;;5092139;27;20090;-86
2022/01/11 08:30:31;;;;;;;40.67;16.30;;;0.80;99.90;;;;;;5077593;27;20062;-86
2022/01/11 08:32:56;;;;;;;35.70;14.38;;;0.80;99.90;;;;;;5092872;27;20043;-86
2022/01/11 08:35:24;;;;;;;37.65;15.40;;;0.80;99.90;;;;;;5110866;27;20074;-86
2022/01/11 08:37:50;;;;;;;40.63;15.85;;;0.80;99.90;;;;;;5093454;27;20043;-86
2022/01/11 08:40:16;;;;;;;37.47;14.73;;;0.90;99.90;;;;;;5093193;27;20486;-85
2022/01/11 08:42:43;;;;;;;35.92;14.98;;;0.80;99.90;;;;;;5111137;27;20046;-86
2022/01/11 08:45:09;;;;;;;38.40;16.13;;;0.80;99.90;;;;;;5109922;27;20112;-85
2022/01/11 08:47:35;;;;;;;42.38;16.40;;;0.80;99.90;;;;;;5093508;27;20130;-86
2022/01/11 08:50:04;;;;;;;42.60;16.48;;;1.70;99.90;;;;;;5092883;27;20122;-86
2022/01/11 08:52:30;;;;;;;41.03;16.45;;;0.80;99.90;;;;;;5110315;27;20096;-86
2022/01/11 08:54:56;;;;;;;35.50;14.23;;;0.80;99.90;;;;;;5077278;27;20043;-87
2022/01/11 08:57:22;;;;;;;36.40;15.35;;;0.90;99.90;;;;;;5092661;27;20092;-86
2022/01/11 08:59:49;;;;;;;38.97;16.17;;;0.90;99.90;;;;;;5110968;27;20075;-86
2022/01/11 09:02:15;;;;;;;40.00;15.68;;;0.90;99.90;;;;;;5108512;27;20055;-86
2022/01/11 09:04:42;;;;;;;31.70;15.07;;;0.90;99.90;;;;;;5110423;27;20088;-86
2022/01/11 09:07:22;;;;;;;35.97;13.82;;;2.40;99.90;;;;;;5091680;27;20134;-86
2022/01/11 09:10:04;;;;;;;30.15;13.65;;;0.90;99.90;;;;;;5094100;27;20047;-86
2022/01/11 09:12:30;;;;;;;35.22;13.55;;;0.90;99.90;;;;;;5111112;27;20042;-86
2022/01/11 09:14:55;;;;;;;28.92;13.27;;;0.90;99.90;;;;;;5127855;27;20876;-86
2022/01/11 09:17:21;;;;;;;30.17;13.25;;;0.90;99.90;;;;;;5092922;27;20043;-85
2022/01/11 09:19:47;;;;;;;28.85;13.38;;;0.90;99.90;;;;;;5074559;27;20046;-85
2022/01/11 09:22:13;;;;;;;28.45;13.82;;;0.90;99.90;;;;;;5092858;27;20080;-85
2022/01/11 09:24:39;;;;;;;31.00;14.80;;;0.90;99.90;;;;;;5109010;27;20397;-85
2022/01/11 09:27:06;;;;;;;34.75;13.75;;;1.00;99.90;;;;;;5110056;27;20413;-85
2022/01/11 09:29:33;;;;;;;25.52;12.50;;;0.90;99.90;;;;;;5093209;27;20046;-85
2022/01/11 09:32:01;;;;;;;34.15;14.55;;;1.10;99.90;;;;;;5075241;27;20039;-85
2022/01/11 09:34:27;;;;;;;28.52;11.77;;;1.00;99.90;;;;;;5093361;27;20053;-85
2022/01/11 09:36:53;;;;;;;26.50;11.68;;;1.00;99.90;;;;;;5109207;27;20107;-85
2022/01/11 09:39:19;;;;;;;36.17;12.82;;;1.00;99.90;;;;;;5091555;27;20047;-85
2022/01/11 09:41:45;;;;;;;26.25;12.32;;;1.00;99.90;;;;;;5109901;27;20050;-85
2022/01/11 09:44:11;;;;;;;25.27;11.52;;;1.00;99.90;;;;;;5091771;27;20068;-85
2022/01/11 09:46:38;;;;;;;29.42;12.25;;;1.00;99.90;;;;;;5093727;27;20091;-85
2022/01/11 09:49:04;;;;;;;22.10;10.95;;;1.10;99.90;;;;;;5090905;27;20054;-84
2022/01/11 09:51:31;;;;;;;20.80;10.52;;;1.10;99.90;;;;;;5108440;27;20054;-85
2022/01/11 09:53:57;;;;;;;27.13;11.25;;;1.10;99.90;;;;;;5091153;27;20043;-86
2022/01/11 09:56:23;;;;;;;21.08;10.60;;;1.10;99.90;;;;;;5092228;27;20456;-85
2022/01/11 09:58:49;;;;;;;25.90;12.20;;;1.10;99.90;;;;;;5075007;27;20043;-85
2022/01/11 10:01:15;;;;;;;27.73;10.85;;;1.10;99.90;;;;;;5090558;28;20075;-85
2022/01/11 10:04:01;;;;;;;22.30;10.13;;;2.10;99.90;;;;;;5092084;27;20080;-86
2022/01/11 10:06:28;;;;;;;23.35;9.93;;;1.10;99.90;;;;;;5091354;27;20046;-85
2022/01/11 10:09:18;;;;;;;22.85;10.05;;;1.10;99.90;;;;;;5091956;27;20083;-85
2022/01/11 10:11:53;;;;;;;18.73;9.63;;;1.10;99.90;;;;;;5092563;28;20402;-86
2022/01/11 10:14:27;;;;;;;21.73;10.25;;;1.10;99.90;;;;;;5108410;28;20044;-85
2022/01/11 10:17:15;;;;;;;19.25;8.93;;;1.10;99.90;;;;;;5091716;28;20050;-85
2022/01/11 10:19:43;;;;;;;19.73;9.60;;;1.20;99.90;;;;;;5092066;28;20039;-85
2022/01/11 10:22:15;;;;;;;23.40;10.02;;;1.10;99.90;;;;;;5109213;28;20047;-84
2022/01/11 10:24:46;;;;;;;17.48;10.18;;;1.00;99.90;;;;;;5092061;28;20045;-85
2022/01/11 10:27:21;;;;;;;19.35;9.48;;;1.20;99.90;;;;;;5127621;28;20035;-86
2022/01/11 10:29:59;;;;;;;20.17;10.48;;;1.20;99.90;;;;;;5128502;28;20618;-85
2022/01/11 10:32:26;;;;;;;20.75;9.80;;;1.20;99.90;;;;;;5108699;28;20047;-84
2022/01/11 10:34:56;;;;;;;20.50;10.52;;;1.60;99.90;;;;;;5128434;28;20031;-83
2022/01/11 10:37:40;;;;;;;20.55;10.27;;;1.20;99.90;;;;;;5109431;28;20535;-84
2022/01/11 10:40:08;;;;;;;15.18;9.52;;;1.20;99.90;;;;;;5104903;28;20054;-84
2022/01/11 10:42:38;;;;;;;18.77;10.30;;;1.20;99.90;;;;;;5106176;28;20586;-84
2022/01/11 10:45:08;;;;;;;20.60;10.70;;;1.20;99.90;;;;;;5088563;28;20062;-85
2022/01/11 10:47:43;;;;;;;15.85;8.77;;;1.20;99.90;;;;;;5106717;28;20449;-84
2022/01/11 10:50:37;;;;;;;21.50;10.93;;;1.50;99.90;;;;;;5089017;28;20047;-85
2022/01/11 10:53:11;;;;;;;26.23;11.60;;;1.30;99.90;;;;;;5095193;28;20530;-84
2022/01/11 10:55:38;;;;;;;24.20;10.27;;;1.30;99.90;;;;;;5106279;28;20135;-84
2022/01/11 10:58:10;;;;;;;19.45;10.25;;;1.30;99.90;;;;;;5104741;28;20096;-84
2022/01/11 11:00:44;;;;;;;24.38;10.75;;;1.30;99.90;;;;;;5089212;28;20550;-85
2022/01/11 11:03:16;;;;;;;20.52;10.13;;;1.40;99.90;;;;;;5106423;28;20043;-85
2022/01/11 11:05:48;;;;;;;25.50;10.05;;;1.40;99.90;;;;;;5105370;28;20613;-84
2022/01/11 11:08:15;;;;;;;23.63;10.90;;;1.40;99.90;;;;;;5105878;28;20044;-85
2022/01/11 11:10:46;;;;;;;21.33;11.18;;;1.50;99.90;;;;;;5105181;28;20126;-85
2022/01/11 11:13:33;;;;;;;22.38;11.55;;;1.70;99.90;;;;;;5108099;28;20051;-84
2022/01/11 11:16:20;;;;;;;22.83;11.35;;;1.90;99.90;;;;;;5109313;28;20096;-84
2022/01/11 11:18:48;;;;;;;20.17;10.38;;;2.20;99.90;;;;;;5091524;28;20486;-85
2022/01/11 11:21:27;;;;;;;21.52;11.40;;;2.30;99.90;;;;;;5092900;28;20078;-85
2022/01/11 11:24:01;;;;;;;20.23;10.05;;;2.50;99.90;;;;;;5108934;28;20044;-85
2022/01/11 11:26:30;;;;;;;17.40;10.55;;;2.70;99.90;;;;;;5090259;28;20044;-84
2022/01/11 11:28:57;;;;;;;18.88;10.80;;;2.80;99.90;;;;;;5092231;28;20487;-85
2022/01/11 11:31:24;;;;;;;26.00;10.80;;;2.90;99.90;;;;;;5107540;28;20032;-85
2022/01/11 11:33:51;;;;;;;22.92;11.48;;;3.10;99.90;;;;;;5075147;28;20046;-85
2022/01/11 11:36:18;;;;;;;22.90;11.27;;;3.20;99.90;;;;;;5089487;28;20083;-85
2022/01/11 11:39:02;;;;;;;18.92;10.00;;;3.30;99.90;;;;;;5091815;28;20048;-85
2022/01/11 11:41:29;;;;;;;15.98;9.27;;;3.40;99.90;;;;;;5106423;28;20036;-85
2022/01/11 11:44:13;;;;;;;16.92;9.10;;;3.40;99.90;;;;;;5092091;28;20055;-85
2022/01/11 11:46:55;;;;;;;17.65;9.77;;;3.40;99.90;;;;;;5108465;28;20055;-85
2022/01/11 11:49:43;;;;;;;19.05;9.82;;;3.40;99.90;;;;;;5089642;28;20050;-85
2022/01/11 11:52:17;;;;;;;19.98;9.98;;;3.40;99.90;;;;;;5108307;28;20347;-85
2022/01/11 11:55:00;;;;;;;20.65;10.35;;;3.30;99.90;;;;;;5108907;28;20089;-85
2022/01/11 11:57:30;;;;;;;20.45;11.23;;;3.30;99.90;;;;;;5105249;28;20039;-85
2022/01/11 12:00:05;;;;;;;17.88;10.20;;;3.20;99.90;;;;;;5107894;28;20605;-85
2022/01/11 12:02:33;;;;;;;25.40;12.27;;;3.10;99.90;;;;;;5106459;28;20078;-84
2022/01/11 12:05:00;;;;;;;19.48;10.85;;;3.10;99.90;;;;;;5107838;28;20047;-85
2022/01/11 12:07:42;;;;;;;17.33;10.07;;;4.70;99.90;;;;;;5091537;28;20044;-84
2022/01/11 12:10:25;;;;;;;20.65;10.50;;;3.00;99.90;;;;;;5107123;28;20050;-84
2022/01/11 12:12:54;;;;;;;20.43;10.07;;;2.10;99.90;;;;;;5090841;28;20083;-84
2022/01/11 12:15:22;;;;;;;19.15;10.23;;;3.00;99.90;;;;;;5090321;28;20654;-84
2022/01/11 12:17:55;;;;;;;18.48;10.48;;;3.00;99.90;;;;;;5108205;28;20071;-84
2022/01/11 12:20:39;;;;;;;15.65;7.80;;;2.90;99.90;;;;;;5091984;28;20175;-84
2022/01/11 12:23:05;;;;;;;20.48;10.30;;;2.90;99.90;;;;;;5106583;28;20058;-84
2022/01/11 12:25:41;;;;;;;20.20;9.75;;;2.90;99.90;;;;;;5106076;28;20050;-84
2022/01/11 12:28:14;;;;;;;23.20;11.02;;;4.30;99.90;;;;;;5088567;28;20040;-84
2022/01/11 12:30:40;;;;;;;21.33;11.05;;;3.50;99.90;;;;;;5088973;28;20539;-84
2022/01/11 12:33:22;;;;;;;26.02;10.68;;;4.00;99.90;;;;;;5090166;28;20173;-84
2022/01/11 12:36:00;;;;;;;14.80;8.13;;;4.80;99.90;;;;;;5088984;28;20493;-84
2022/01/11 12:38:29;;;;;;;22.33;10.52;;;2.90;99.90;;;;;;5107937;28;20591;-84
2022/01/11 12:40:55;;;;;;;18.80;10.23;;;2.90;99.90;;;;;;5107185;28;20051;-84
2022/01/11 12:43:40;;;;;;;20.48;9.95;;;2.90;99.90;;;;;;5106429;28;20506;-84
2022/01/11 12:46:10;;;;;;;18.75;10.57;;;2.90;99.90;;;;;;5091146;28;20062;-84